Time;durP1;ratioP1;P1;durP2;ratioP2;P2;SDS_P1;SDS_P2;PMS_P1;PMS_P2;Temp;Humidity;BMP_temperature;BMP_pressure;BME280_temperature;BME280_humidity;BME280_pressure;Samples;Min_cycle;Max_cycle;Signal;HPM_P1;HPM_P2
2023/06/16 00:02:17;;;;;;;6.43;3.07;;;;;;;23.94;69.59;98386.22;6215981;23;20157;-89
2023/06/16 00:04:44;;;;;;;5.67;2.43;;;;;;;23.81;70.15;98386.84;6216262;23;20150;-89
2023/06/16 00:07:11;;;;;;;4.60;2.53;;;;;;;23.76;70.87;98384.72;6189423;23;20493;-89
2023/06/16 00:09:37;;;;;;;7.60;2.63;;;;;;;23.92;69.86;98390.94;6215843;23;20160;-88
2023/06/16 00:12:03;;;;;;;5.60;3.00;;;;;;;24.10;67.86;98388.75;6215711;23;20181;-88
2023/06/16 00:14:29;;;;;;;6.97;3.10;;;;;;;24.15;67.01;98389.03;6215866;23;20150;-88
2023/06/16 00:16:57;;;;;;;6.57;2.90;;;;;;;24.15;66.63;98400.59;6215816;23;20165;-88
2023/06/16 00:19:27;;;;;;;5.50;2.90;;;;;;;24.24;66.58;98393.31;6215864;23;20150;-88
2023/06/16 00:21:53;;;;;;;8.27;3.60;;;;;;;24.26;66.45;98381.38;6216873;23;20134;-88
2023/06/16 00:24:20;;;;;;;5.13;3.00;;;;;;;24.23;66.21;98386.28;6215703;23;20627;-88
2023/06/16 00:26:46;;;;;;;7.20;3.10;;;;;;;24.19;66.29;98384.97;6216129;23;20221;-88
2023/06/16 00:29:11;;;;;;;6.90;3.57;;;;;;;24.14;65.87;98373.97;6215706;23;20229;-88
2023/06/16 00:31:37;;;;;;;5.13;3.20;;;;;;;24.08;66.21;98378.22;6189690;23;20185;-88
2023/06/16 00:34:03;;;;;;;8.40;3.30;;;;;;;24.07;66.12;98381.06;6215720;23;20145;-88
2023/06/16 00:36:30;;;;;;;11.53;3.00;;;;;;;24.01;66.26;98381.78;6215709;23;20150;-88
2023/06/16 00:38:57;;;;;;;7.40;3.10;;;;;;;23.92;66.35;98380.22;6216369;23;20181;-89
2023/06/16 00:41:24;;;;;;;5.50;3.27;;;;;;;23.89;66.52;98375.25;6216302;23;20154;-89
2023/06/16 00:43:52;;;;;;;5.57;3.00;;;;;;;23.84;66.52;98376.63;6215644;23;20184;-88
2023/06/16 00:46:27;;;;;;;6.43;3.20;;;;;;;23.83;66.29;98385.66;6215852;23;20149;-88
2023/06/16 00:48:55;;;;;;;7.97;3.40;;;;;;;23.85;66.26;98378.28;6216012;23;20136;-89
2023/06/16 00:51:25;;;;;;;7.80;3.23;;;;;;;23.85;66.09;98380.94;6216404;23;20181;-89
2023/06/16 00:53:54;;;;;;;4.63;3.00;;;;;;;23.85;65.74;98380.13;6215764;23;20146;-89
2023/06/16 00:56:21;;;;;;;7.73;3.20;;;;;;;23.80;66.24;98382.50;6215526;23;20258;-89
2023/06/16 00:58:52;;;;;;;6.63;3.23;;;;;;;23.70;66.40;98374.75;6215558;23;20184;-88
2023/06/16 01:01:20;;;;;;;6.00;3.40;;;;;;;23.63;66.86;98379.19;6189427;23;20138;-89
2023/06/16 01:03:50;;;;;;;5.40;2.90;;;;;;;23.59;67.18;98377.84;6215167;23;20173;-89
2023/06/16 01:06:41;;;;;;;7.77;3.30;;;;;;;23.66;66.69;98378.78;6215960;23;20134;-89
2023/06/16 01:09:34;;;;;;;5.50;2.77;;;;;;;23.73;66.09;98382.41;6215907;23;20134;-89
2023/06/16 01:12:18;;;;;;;6.00;2.83;;;;;;;23.72;65.83;98378.06;6215745;23;20170;-89
2023/06/16 01:15:13;;;;;;;5.53;3.07;;;;;;;23.65;65.91;98382.50;6215886;23;20150;-88
2023/06/16 01:17:46;;;;;;;6.70;3.73;;;;;;;23.69;65.99;98378.44;6215430;23;20161;-89
2023/06/16 01:20:22;;;;;;;5.73;2.97;;;;;;;23.69;65.71;98375.75;6215648;23;20531;-89
2023/06/16 01:23:14;;;;;;;6.40;3.87;;;;;;;23.61;65.86;98378.50;6215849;23;20152;-89
2023/06/16 01:25:43;;;;;;;7.47;3.43;;;;;;;23.62;65.90;98377.50;6189270;23;20515;-88
2023/06/16 01:28:12;;;;;;;5.53;3.70;;;;;;;23.63;65.93;98371.16;6216077;23;20160;-88
2023/06/16 01:30:42;;;;;;;8.03;3.47;;;;;;;23.60;66.04;98368.00;6215647;23;20536;-89
2023/06/16 01:33:12;;;;;;;5.83;3.47;;;;;;;23.57;66.05;98369.19;6215403;23;20150;-88
2023/06/16 01:35:40;;;;;;;6.47;4.00;;;;;;;23.51;66.59;98358.38;6215365;23;20150;-88
2023/06/16 01:38:08;;;;;;;9.17;4.17;;;;;;;23.46;66.79;98356.25;6215658;23;20578;-88
2023/06/16 01:40:36;;;;;;;7.93;3.97;;;;;;;23.43;66.92;98355.75;6215583;23;20261;-88
2023/06/16 01:43:02;;;;;;;9.90;3.70;;;;;;;23.37;67.17;98352.00;6215729;23;20146;-88
2023/06/16 01:45:31;;;;;;;7.93;4.50;;;;;;;23.29;67.26;98354.69;6215322;23;20223;-89
2023/06/16 01:47:57;;;;;;;7.00;4.43;;;;;;;23.23;67.56;98358.91;6215289;23;20146;-89
2023/06/16 01:50:22;;;;;;;7.60;4.13;;;;;;;23.25;67.61;98354.22;6215255;23;20173;-89
2023/06/16 01:52:49;;;;;;;8.37;4.23;;;;;;;23.24;67.70;98357.06;6215316;23;20497;-89
2023/06/16 01:55:16;;;;;;;9.70;4.73;;;;;;;23.14;68.18;98356.47;6215958;23;20212;-89
2023/06/16 01:57:41;;;;;;;6.83;4.17;;;;;;;23.13;67.99;98363.69;6216636;23;20207;-88
2023/06/16 02:00:14;;;;;;;8.83;4.07;;;;;;;23.19;68.19;98354.13;6217050;23;20146;-89
2023/06/16 02:02:45;;;;;;;8.87;3.93;;;;;;;23.09;68.63;98362.34;6191151;23;20154;-89
2023/06/16 02:05:16;;;;;;;9.37;4.43;;;;;;;23.00;69.07;98373.28;6217011;23;20541;-89
2023/06/16 02:07:46;;;;;;;6.93;4.00;;;;;;;22.95;69.26;98368.47;6217464;23;20134;-89
2023/06/16 02:10:14;;;;;;;6.60;3.37;;;;;;;22.99;68.85;98366.25;6217349;23;20170;-90
2023/06/16 02:12:40;;;;;;;8.40;4.63;;;;;;;23.03;68.63;98355.06;6217017;23;20470;-89
2023/06/16 02:15:07;;;;;;;8.17;3.93;;;;;;;23.07;68.54;98358.19;6217005;23;20225;-89
2023/06/16 02:17:32;;;;;;;7.57;4.30;;;;;;;23.04;68.57;98355.88;6216936;23;20521;-90
2023/06/16 02:19:59;;;;;;;9.53;4.70;;;;;;;22.98;68.86;98352.06;6216761;23;20207;-89
2023/06/16 02:22:26;;;;;;;9.77;5.17;;;;;;;23.04;68.53;98362.06;6191672;23;20165;-89
2023/06/16 02:24:54;;;;;;;6.83;4.77;;;;;;;23.01;68.34;98354.38;6189016;23;20590;-89
2023/06/16 02:27:20;;;;;;;6.50;4.27;;;;;;;23.06;68.63;98356.56;6216132;23;20589;-89
2023/06/16 02:29:46;;;;;;;7.50;4.23;;;;;;;22.96;68.92;98363.94;6216707;23;20145;-88
2023/06/16 02:32:11;;;;;;;7.33;4.33;;;;;;;22.83;69.83;98358.34;6217063;23;20160;-88
2023/06/16 02:34:38;;;;;;;8.57;4.63;;;;;;;22.81;70.10;98358.53;6216722;23;20149;-89
2023/06/16 02:37:05;;;;;;;8.83;4.63;;;;;;;22.76;70.71;98362.75;6190587;23;20546;-88
2023/06/16 02:39:30;;;;;;;6.47;3.73;;;;;;;22.78;70.37;98363.41;6216712;23;20208;-89
2023/06/16 02:41:56;;;;;;;10.27;4.63;;;;;;;22.77;70.73;98364.41;6216660;23;20213;-88
2023/06/16 02:44:23;;;;;;;7.70;4.73;;;;;;;22.72;71.48;98358.78;6189652;23;20150;-89
2023/06/16 02:46:48;;;;;;;8.87;4.03;;;;;;;22.65;71.91;98355.97;6216554;23;20221;-89
2023/06/16 02:49:13;;;;;;;10.30;4.53;;;;;;;22.64;72.81;98363.13;6216976;23;20291;-89
2023/06/16 02:51:40;;;;;;;7.53;3.83;;;;;;;22.65;72.77;98358.63;6216423;23;20169;-89
2023/06/16 02:54:07;;;;;;;10.57;5.17;;;;;;;22.73;72.52;98352.41;6216471;23;20164;-89
2023/06/16 02:56:33;;;;;;;9.63;5.07;;;;;;;22.71;72.59;98341.91;6216453;23;20146;-89
2023/06/16 02:58:59;;;;;;;13.83;5.00;;;;;;;22.77;72.29;98343.88;6216496;23;20153;-89
2023/06/16 03:01:28;;;;;;;12.50;5.43;;;;;;;22.84;71.96;98344.84;6215965;23;20215;-89
2023/06/16 03:03:56;;;;;;;9.00;4.80;;;;;;;22.80;72.52;98340.03;6189874;23;20165;-89
2023/06/16 03:06:23;;;;;;;15.10;5.17;;;;;;;22.83;72.51;98348.50;6216332;23;20153;-89
2023/06/16 03:08:48;;;;;;;12.40;5.17;;;;;;;22.84;72.19;98344.00;6215980;23;20472;-89
2023/06/16 03:11:15;;;;;;;10.80;4.97;;;;;;;22.89;72.55;98352.31;6190012;23;20183;-89
2023/06/16 03:13:41;;;;;;;11.30;5.10;;;;;;;22.95;72.04;98351.59;6190137;23;20154;-89
2023/06/16 03:16:07;;;;;;;11.63;4.90;;;;;;;22.95;71.87;98352.44;6216050;23;20173;-89
2023/06/16 03:18:33;;;;;;;11.07;5.93;;;;;;;22.90;72.12;98348.63;6216129;23;20539;-89
2023/06/16 03:21:01;;;;;;;11.60;4.90;;;;;;;22.95;72.14;98348.94;6216712;23;20153;-89
2023/06/16 03:23:28;;;;;;;16.10;5.27;;;;;;;22.93;72.20;98349.09;6216204;23;20160;-89
2023/06/16 03:25:53;;;;;;;10.20;5.00;;;;;;;22.83;73.66;98355.69;6215768;23;20228;-89
2023/06/16 03:28:19;;;;;;;12.37;5.40;;;;;;;22.81;73.92;98350.53;6215711;23;20570;-89
2023/06/16 03:30:45;;;;;;;8.83;4.57;;;;;;;22.80;73.98;98353.38;6216024;23;20227;-88
2023/06/16 03:33:11;;;;;;;12.57;5.57;;;;;;;22.76;74.19;98354.72;6189873;23;20154;-89
2023/06/16 03:35:37;;;;;;;10.83;5.10;;;;;;;22.72;74.52;98348.91;6216060;23;20232;-89
2023/06/16 03:38:04;;;;;;;7.20;4.20;;;;;;;22.72;75.06;98350.75;6216252;23;20211;-88
2023/06/16 03:40:30;;;;;;;9.83;5.30;;;;;;;22.68;75.04;98352.94;6215953;23;20142;-88
2023/06/16 03:42:55;;;;;;;12.70;5.50;;;;;;;22.73;74.95;98357.75;6216131;23;20158;-89
2023/06/16 03:45:22;;;;;;;8.33;4.83;;;;;;;22.71;74.80;98352.59;6215956;23;20154;-88
2023/06/16 03:47:49;;;;;;;10.23;5.77;;;;;;;22.72;75.26;98350.75;6216110;23;20146;-88
2023/06/16 03:50:15;;;;;;;7.17;4.43;;;;;;;22.72;75.35;98351.56;6216002;23;20231;-88
2023/06/16 03:52:42;;;;;;;13.70;5.30;;;;;;;22.72;75.91;98348.09;6215893;23;20224;-88
2023/06/16 03:55:09;;;;;;;12.63;5.33;;;;;;;22.75;76.20;98347.72;6215988;23;20215;-88
2023/06/16 03:57:35;;;;;;;10.03;5.17;;;;;;;22.81;76.20;98349.69;6215881;23;20145;-89
2023/06/16 04:00:03;;;;;;;14.67;6.80;;;;;;;22.88;75.87;98347.97;6216012;23;20157;-88
2023/06/16 04:02:30;;;;;;;10.67;5.77;;;;;;;23.00;75.50;98350.06;6215777;23;20550;-89
2023/06/16 04:04:56;;;;;;;10.60;5.00;;;;;;;23.17;74.46;98348.94;6214249;23;20484;-89
2023/06/16 04:07:22;;;;;;;9.77;5.47;;;;;;;23.25;73.86;98351.53;6214024;23;20145;-89
2023/06/16 04:09:47;;;;;;;10.30;5.67;;;;;;;23.33;73.60;98345.28;6214080;23;20453;-89
2023/06/16 04:12:13;;;;;;;8.77;5.67;;;;;;;23.33;73.54;98350.63;6215774;23;20150;-89
2023/06/16 04:14:38;;;;;;;10.83;5.67;;;;;;;23.36;73.63;98360.13;6214318;23;20907;-88
2023/06/16 04:17:04;;;;;;;17.50;6.17;;;;;;;23.47;73.24;98359.75;6215145;23;20166;-89
2023/06/16 04:19:30;;;;;;;17.10;7.37;;;;;;;23.54;72.23;98350.81;6215577;23;20673;-89
2023/06/16 04:21:57;;;;;;;14.60;6.80;;;;;;;23.53;72.64;98349.13;6215793;23;20146;-89
2023/06/16 04:24:22;;;;;;;23.73;7.30;;;;;;;23.56;71.90;98356.81;6215677;23;20149;-89
2023/06/16 04:26:48;;;;;;;18.07;7.30;;;;;;;23.58;72.26;98352.13;6215710;23;20613;-89
2023/06/16 04:29:14;;;;;;;14.80;8.40;;;;;;;23.53;72.77;98357.16;6215790;23;20156;-89
2023/06/16 04:31:42;;;;;;;19.67;8.70;;;;;;;23.54;72.70;98350.81;6215624;23;20264;-89
2023/06/16 04:34:10;;;;;;;18.37;8.97;;;;;;;23.49;72.93;98345.19;6216016;23;20157;-89
2023/06/16 04:36:36;;;;;;;15.57;9.17;;;;;;;23.57;72.82;98347.78;6189058;23;20241;-89
2023/06/16 04:39:03;;;;;;;19.47;10.13;;;;;;;23.53;73.04;98353.69;6214730;23;20508;-89
2023/06/16 04:41:28;;;;;;;20.80;10.60;;;;;;;23.53;73.11;98346.47;6214775;23;20707;-89
2023/06/16 04:43:54;;;;;;;17.27;10.00;;;;;;;23.56;72.84;98345.28;6188692;23;20154;-88
2023/06/16 04:56:25;;;;;;;20.37;10.73;;;;;;;23.60;74.08;98346.59;6215388;23;20530;-89
2023/06/16 04:58:51;;;;;;;16.30;10.07;;;;;;;23.51;75.47;98348.50;6188997;23;20601;-88
2023/06/16 05:01:18;;;;;;;17.70;9.27;;;;;;;23.61;74.77;98345.59;6216206;23;20583;-89
2023/06/16 05:03:45;;;;;;;17.53;9.23;;;;;;;23.76;72.64;98352.63;6215643;23;20156;-90
2023/06/16 05:06:11;;;;;;;15.27;8.30;;;;;;;23.72;73.06;98353.97;6186807;23;20154;-90
2023/06/16 05:08:38;;;;;;;20.60;8.57;;;;;;;23.68;74.18;98354.53;6189110;23;20215;-90
2023/06/16 05:11:05;;;;;;;16.77;7.93;;;;;;;23.79;73.90;98360.25;6189347;23;20181;-89
2023/06/16 05:13:33;;;;;;;17.10;9.37;;;;;;;23.95;72.67;98350.41;6215334;23;20172;-90
2023/06/16 05:15:58;;;;;;;15.40;8.43;;;;;;;23.87;72.86;98354.03;6214873;23;20154;-89
2023/06/16 05:18:25;;;;;;;18.37;8.90;;;;;;;23.92;72.87;98350.78;6215156;23;20193;-89
2023/06/16 05:20:52;;;;;;;25.37;8.60;;;;;;;23.93;72.65;98347.06;6189093;23;20236;-89
2023/06/16 05:23:18;;;;;;;19.63;9.83;;;;;;;24.13;71.76;98349.06;6189037;23;20175;-88
2023/06/16 05:25:45;;;;;;;17.70;9.37;;;;;;;24.22;70.71;98347.09;6189456;23;20161;-89
2023/06/16 05:28:11;;;;;;;20.90;9.77;;;;;;;24.25;70.38;98341.38;6215304;23;20150;-88
2023/06/16 05:30:38;;;;;;;22.47;10.07;;;;;;;24.31;71.06;98335.28;6215065;23;20277;-88
2023/06/16 05:33:04;;;;;;;20.07;9.93;;;;;;;24.41;71.04;98341.19;6217488;23;20158;-88
2023/06/16 05:35:50;;;;;;;16.37;8.70;;;;;;;24.42;70.85;98337.50;6216058;23;20233;-88
2023/06/16 05:38:16;;;;;;;17.57;8.90;;;;;;;24.52;70.95;98345.22;6217219;23;20134;-88
2023/06/16 05:40:42;;;;;;;14.97;8.00;;;;;;;24.57;70.82;98345.50;6216548;23;20145;-89
2023/06/16 05:43:12;;;;;;;15.43;8.93;;;;;;;24.40;71.18;98351.06;6216832;23;20617;-88
2023/06/16 05:45:39;;;;;;;12.63;7.90;;;;;;;24.42;71.41;98356.25;6217016;23;20187;-89
2023/06/16 05:48:06;;;;;;;12.90;7.40;;;;;;;24.57;69.73;98356.22;6216768;23;20455;-88
2023/06/16 05:50:32;;;;;;;11.10;7.30;;;;;;;24.68;68.79;98350.38;6216804;23;20197;-88
2023/06/16 05:53:05;;;;;;;13.20;7.80;;;;;;;24.80;68.80;98355.09;6216973;23;20150;-91
2023/06/16 05:55:32;;;;;;;12.80;7.27;;;;;;;24.85;68.61;98354.50;6191054;23;20150;-91
2023/06/16 05:58:00;;;;;;;14.07;7.67;;;;;;;24.82;70.48;98355.72;6217481;23;20161;-93
2023/06/16 06:00:29;;;;;;;16.23;7.10;;;;;;;24.91;69.78;98359.13;6215988;23;20716;-92
2023/06/16 06:02:55;;;;;;;16.63;7.60;;;;;;;25.05;69.84;98351.00;6217434;23;20157;-93
2023/06/16 06:05:22;;;;;;;15.27;8.13;;;;;;;25.32;67.52;98338.69;6190812;23;20177;-92
2023/06/16 06:07:48;;;;;;;15.33;7.73;;;;;;;25.44;65.12;98339.84;6217292;23;20146;-93
2023/06/16 06:10:18;;;;;;;14.60;8.10;;;;;;;25.26;66.36;98335.94;6191434;23;20182;-93
2023/06/16 06:12:44;;;;;;;10.83;7.07;;;;;;;25.40;67.13;98337.72;6190797;23;20574;-90
2023/06/16 06:15:11;;;;;;;14.10;7.37;;;;;;;25.58;64.65;98346.16;6216734;23;20184;-91
2023/06/16 06:17:37;;;;;;;12.97;6.77;;;;;;;25.53;66.50;98344.06;6190665;23;20201;-92
2023/06/16 06:20:06;;;;;;;10.63;5.47;;;;;;;25.78;61.23;98344.47;6216922;23;20172;-91
2023/06/16 06:22:33;;;;;;;11.17;5.87;;;;;;;25.96;61.76;98342.09;6216756;23;20577;-90
2023/06/16 06:25:04;;;;;;;14.40;7.33;;;;;;;25.95;63.13;98351.16;6216556;23;20161;-90
2023/06/16 06:27:35;;;;;;;13.50;7.10;;;;;;;26.08;63.66;98347.72;6216976;23;20461;-92
2023/06/16 06:30:02;;;;;;;15.47;8.30;;;;;;;26.43;62.81;98335.97;6190495;23;20158;-90
2023/06/16 06:32:29;;;;;;;16.17;8.07;;;;;;;26.74;61.66;98343.53;6189925;23;20581;-90
2023/06/16 06:34:56;;;;;;;11.23;6.07;;;;;;;26.86;57.38;98338.44;6216136;23;20146;-89
2023/06/16 06:37:29;;;;;;;11.73;6.07;;;;;;;27.01;57.34;98342.59;6215691;23;20149;-89
2023/06/16 06:39:58;;;;;;;17.53;7.13;;;;;;;27.11;57.30;98340.34;6190290;23;20156;-90
2023/06/16 06:42:26;;;;;;;9.67;5.93;;;;;;;27.11;54.59;98340.34;6216385;23;20146;-90
2023/06/16 06:44:53;;;;;;;16.57;7.80;;;;;;;27.06;57.72;98342.81;6215945;23;20208;-89
2023/06/16 06:47:21;;;;;;;11.13;6.73;;;;;;;26.97;56.92;98344.03;6190538;23;20245;-90
2023/06/16 06:49:47;;;;;;;12.17;7.73;;;;;;;27.07;56.63;98357.91;6216277;23;20570;-90
2023/06/16 06:52:12;;;;;;;19.67;8.03;;;;;;;27.21;55.72;98339.91;6189723;23;20216;-89
2023/06/16 06:54:40;;;;;;;13.93;8.73;;;;;;;27.24;56.12;98345.72;6189802;23;20593;-90
2023/06/16 06:57:06;;;;;;;20.20;9.63;;;;;;;27.34;56.29;98335.38;6216647;23;20149;-89
2023/06/16 06:59:32;;;;;;;20.43;10.37;;;;;;;27.38;56.56;98344.69;6214431;23;20149;-89
2023/06/16 07:01:57;;;;;;;17.70;10.30;;;;;;;27.41;56.80;98352.38;6213681;23;20153;-89
2023/06/16 07:04:23;;;;;;;21.33;9.27;;;;;;;27.38;57.01;98347.38;6188527;23;20153;-89
2023/06/16 07:06:48;;;;;;;21.13;9.10;;;;;;;27.39;57.34;98345.53;6214457;23;20160;-90
2023/06/16 07:09:14;;;;;;;15.50;8.63;;;;;;;27.39;57.97;98341.00;6214468;23;20156;-89
2023/06/16 07:11:39;;;;;;;12.13;5.70;;;;;;;27.62;50.32;98342.47;6214414;23;20229;-91
2023/06/16 07:14:05;;;;;;;10.67;6.50;;;;;;;27.65;51.42;98336.66;6189353;23;20154;-88
2023/06/16 07:16:30;;;;;;;11.52;6.40;;;;;;;27.66;51.46;98347.22;6216397;23;20150;-89
2023/06/16 07:18:59;;;;;;;14.27;6.50;;;;;;;27.64;51.08;98345.78;6216394;23;20134;-89
2023/06/16 07:21:27;;;;;;;8.73;5.13;;;;;;;27.65;50.52;98347.41;6216108;23;20153;-89
2023/06/16 07:23:52;;;;;;;9.90;5.70;;;;;;;27.60;50.26;98349.91;6216591;23;20134;-88
2023/06/16 07:26:18;;;;;;;14.23;5.80;;;;;;;27.63;51.35;98346.81;6215656;23;20232;-88
2023/06/16 07:28:43;;;;;;;10.95;6.15;;;;;;;27.68;51.50;98349.69;6215980;23;20146;-89
2023/06/16 07:31:09;;;;;;;10.50;5.70;;;;;;;27.73;52.20;98344.50;6215773;23;20671;-89
2023/06/16 07:33:34;;;;;;;9.60;5.77;;;;;;;27.72;52.48;98348.25;6215927;23;20149;-88
2023/06/16 07:36:00;;;;;;;9.77;5.13;;;;;;;27.78;50.87;98342.03;6215880;23;20224;-89
2023/06/16 07:38:26;;;;;;;11.13;6.00;;;;;;;27.79;50.69;98343.69;6216238;23;20582;-89
2023/06/16 07:40:51;;;;;;;10.65;5.60;;;;;;;27.74;50.76;98346.19;6216082;23;20141;-89
2023/06/16 07:43:17;;;;;;;9.57;5.38;;;;;;;27.71;50.43;98351.97;6216359;23;20475;-89
2023/06/16 07:45:42;;;;;;;10.38;5.10;;;;;;;27.71;50.62;98351.97;6215924;23;20153;-89
2023/06/16 07:48:09;;;;;;;10.00;4.80;;;;;;;27.79;49.86;98351.75;6188007;23;20546;-91
2023/06/16 07:50:35;;;;;;;7.93;5.32;;;;;;;27.75;50.18;98342.47;6215234;23;20177;-88
2023/06/16 07:53:00;;;;;;;14.68;6.47;;;;;;;27.79;50.60;98349.91;6212211;23;20164;-88
2023/06/16 07:55:26;;;;;;;10.43;5.17;;;;;;;27.92;50.56;98349.06;6215065;23;20150;-89
2023/06/16 07:57:51;;;;;;;8.10;5.10;;;;;;;27.92;49.23;98339.13;6212037;23;20153;-89
2023/06/16 08:00:18;;;;;;;9.67;5.13;;;;;;;27.90;49.78;98335.81;6214818;23;20510;-88
2023/06/16 08:02:45;;;;;;;7.57;4.63;;;;;;;27.88;52.15;98343.25;6212624;23;20157;-88
2023/06/16 08:05:16;;;;;;;9.60;5.07;;;;;;;27.97;49.28;98342.00;6212770;23;20153;-88
2023/06/16 08:07:47;;;;;;;7.83;4.73;;;;;;;27.89;51.92;98338.69;6215516;23;20459;-88
2023/06/16 08:10:16;;;;;;;7.32;4.45;;;;;;;28.00;48.71;98346.97;6186956;23;20156;-87
2023/06/16 08:12:43;;;;;;;7.30;4.35;;;;;;;28.08;50.25;98337.03;6213069;23;20180;-88
2023/06/16 08:15:09;;;;;;;10.40;4.43;;;;;;;28.06;51.90;98336.41;6210749;23;20246;-90
2023/06/16 08:17:36;;;;;;;8.68;4.82;;;;;;;28.14;49.86;98339.72;6213553;23;20166;-92
2023/06/16 08:20:04;;;;;;;8.10;4.85;;;;;;;28.03;50.63;98343.91;6214431;23;20584;-90
2023/06/16 08:22:29;;;;;;;7.97;4.30;;;;;;;28.16;48.08;98347.59;6188975;23;20664;-89
2023/06/16 08:24:55;;;;;;;11.25;5.38;;;;;;;28.18;48.59;98338.25;6215144;23;20225;-90
2023/06/16 08:27:21;;;;;;;10.20;3.88;;;;;;;28.21;47.64;98332.44;6215283;23;20593;-88
2023/06/16 08:29:47;;;;;;;7.83;4.23;;;;;;;28.18;48.36;98338.25;6215052;23;20626;-88
2023/06/16 08:32:13;;;;;;;6.65;4.55;;;;;;;28.12;48.80;98331.00;6215194;23;20169;-90
2023/06/16 08:34:39;;;;;;;8.63;5.60;;;;;;;27.97;51.28;98339.31;6215152;23;20168;-88
2023/06/16 08:37:05;;;;;;;11.85;5.00;;;;;;;28.01;51.83;98347.81;6215238;23;20161;-88
2023/06/16 08:39:30;;;;;;;10.57;5.03;;;;;;;28.07;52.92;98355.06;6214862;23;20212;-89
2023/06/16 08:41:58;;;;;;;7.10;4.20;;;;;;;28.01;52.08;98358.59;6215319;23;20207;-89
2023/06/16 08:44:24;;;;;;;7.93;4.38;;;;;;;28.01;53.14;98348.66;6215205;23;20146;-89
2023/06/16 08:46:50;;;;;;;7.70;4.53;;;;;;;28.02;54.27;98350.31;6215102;23;20215;-88
2023/06/16 08:49:17;;;;;;;8.82;4.70;;;;;;;28.35;51.64;98352.94;6215200;23;20150;-88
2023/06/16 08:51:50;;;;;;;7.25;4.18;;;;;;;28.64;50.84;98352.41;6214888;23;20173;-89
2023/06/16 08:54:19;;;;;;;7.97;4.20;;;;;;;28.85;50.57;98358.56;6215183;23;20134;-89
2023/06/16 08:56:47;;;;;;;8.73;4.82;;;;;;;29.00;48.55;98345.59;6188352;23;20537;-90
2023/06/16 08:59:15;;;;;;;9.82;4.70;;;;;;;28.88;50.66;98341.94;6215188;23;20150;-89
2023/06/16 09:01:42;;;;;;;9.75;4.63;;;;;;;29.05;49.83;98322.31;6215020;23;20142;-91
2023/06/16 09:04:13;;;;;;;7.18;4.25;;;;;;;29.21;51.73;98324.53;6215202;23;20174;-90
2023/06/16 09:06:47;;;;;;;7.07;4.40;;;;;;;29.28;48.87;98319.06;6215745;23;20220;-89
2023/06/16 09:09:13;;;;;;;8.13;4.25;;;;;;;28.99;49.60;98320.47;6216720;23;20562;-89
2023/06/16 09:11:39;;;;;;;8.02;3.85;;;;;;;28.97;49.18;98321.75;6189822;23;20476;-89
2023/06/16 09:14:14;;;;;;;8.98;3.67;;;;;;;29.13;48.46;98319.34;6216472;23;20177;-88
2023/06/16 09:16:41;;;;;;;8.02;4.43;;;;;;;29.12;47.46;98319.56;6216794;23;20230;-89
2023/06/16 09:19:08;;;;;;;7.50;3.85;;;;;;;29.04;46.71;98320.66;6188863;23;20153;-89
2023/06/16 09:21:34;;;;;;;15.23;3.22;;;;;;;28.79;45.86;98327.03;6215328;23;20157;-89
2023/06/16 09:24:00;;;;;;;5.32;2.67;;;;;;;28.78;48.17;98323.50;6215769;23;20600;-89
2023/06/16 09:26:30;;;;;;;6.00;2.80;;;;;;;28.76;48.44;98319.38;6215247;23;20316;-89
2023/06/16 09:28:58;;;;;;;6.20;3.28;;;;;;;29.06;45.35;98313.16;6215636;23;20154;-89
2023/06/16 09:31:34;;;;;;;5.70;3.20;;;;;;;29.17;46.04;98309.75;6216219;23;20173;-88
2023/06/16 09:34:05;;;;;;;5.05;2.95;;;;;;;29.16;48.09;98312.69;6215962;23;20543;-89
2023/06/16 09:36:31;;;;;;;9.52;3.05;;;;;;;28.92;47.73;98302.69;6215874;23;20178;-89
2023/06/16 09:38:57;;;;;;;5.43;2.63;;;;;;;29.05;47.16;98299.91;6216086;23;20647;-90
2023/06/16 09:41:23;;;;;;;4.72;2.78;;;;;;;29.32;45.76;98304.09;6215427;23;20142;-90
2023/06/16 09:43:49;;;;;;;6.05;3.63;;;;;;;29.55;45.50;98300.78;6215699;23;20893;-89
2023/06/16 09:46:15;;;;;;;7.60;3.75;;;;;;;29.54;49.16;98301.81;6215699;23;20168;-89
2023/06/16 09:48:50;;;;;;;5.80;3.17;;;;;;;29.47;46.88;98290.25;6215540;23;20542;-89
2023/06/16 09:51:23;;;;;;;5.05;3.00;;;;;;;29.58;47.24;98292.22;6215720;23;20232;-89
2023/06/16 09:53:50;;;;;;;8.20;3.30;;;;;;;29.35;46.69;98292.81;6215795;23;20142;-89
2023/06/16 09:56:19;;;;;;;6.10;2.97;;;;;;;29.36;48.04;98283.69;6189854;23;20165;-88
2023/06/16 09:58:47;;;;;;;6.93;2.95;;;;;;;29.30;48.30;98281.88;6189673;23;20627;-89
2023/06/16 10:01:16;;;;;;;6.57;3.00;;;;;;;29.28;47.92;98281.25;6216098;23;20207;-89
2023/06/16 10:03:43;;;;;;;5.30;3.13;;;;;;;28.99;48.43;98277.31;6215830;23;20150;-90
2023/06/16 10:06:15;;;;;;;8.30;3.60;;;;;;;28.94;48.75;98269.03;6214773;23;20172;-89
2023/06/16 10:08:42;;;;;;;5.95;3.10;;;;;;;29.11;49.05;98263.94;6189789;23;20152;-90
2023/06/16 10:11:14;;;;;;;5.50;3.33;;;;;;;29.28;48.24;98261.53;6215491;23;20177;-89
2023/06/16 10:13:44;;;;;;;5.35;3.13;;;;;;;29.33;48.61;98267.94;6196459;23;20255;-89
2023/06/16 10:16:12;;;;;;;7.43;3.15;;;;;;;29.45;47.73;98268.88;6246218;23;20141;-89
2023/06/16 10:18:41;;;;;;;6.07;3.00;;;;;;;29.35;48.73;98263.13;6246027;23;20492;-89
2023/06/16 10:21:11;;;;;;;6.25;3.50;;;;;;;28.99;48.71;98265.69;6245533;23;20220;-89
2023/06/16 10:23:36;;;;;;;8.02;3.20;;;;;;;28.81;49.89;98257.50;6246117;23;20138;-88
2023/06/16 10:26:05;;;;;;;6.28;3.70;;;;;;;28.69;49.67;98260.09;6246019;23;20533;-89
2023/06/16 10:28:32;;;;;;;9.75;3.72;;;;;;;28.52;50.18;98259.72;6245686;23;20181;-90
2023/06/16 10:30:59;;;;;;;6.95;3.85;;;;;;;28.56;51.33;98244.75;6245612;23;20183;-90
2023/06/16 10:33:28;;;;;;;7.65;3.65;;;;;;;28.55;51.99;98243.13;6245640;23;20228;-88
2023/06/16 10:35:56;;;;;;;8.60;3.42;;;;;;;28.70;51.21;98239.31;6245280;23;20141;-89
2023/06/16 10:38:39;;;;;;;6.03;3.03;;;;;;;28.72;52.43;98235.34;6246083;23;20149;-89
2023/06/16 10:41:06;;;;;;;7.75;4.10;;;;;;;28.62;53.27;98227.75;6245764;23;20168;-89
2023/06/16 10:43:32;;;;;;;5.28;2.75;;;;;;;28.47;53.10;98232.59;6244800;23;20172;-90
2023/06/16 10:46:13;;;;;;;6.03;3.60;;;;;;;28.35;53.51;98242.41;6219472;23;20432;-87
2023/06/16 10:49:09;;;;;;;5.03;3.15;;;;;;;28.41;53.95;98238.84;6246006;23;20469;-89
2023/06/16 10:51:46;;;;;;;6.72;3.85;;;;;;;28.66;51.76;98224.63;6245659;23;20243;-91
2023/06/16 10:54:37;;;;;;;7.72;3.97;;;;;;;28.70;52.73;98209.66;6244263;23;20137;-89
2023/06/16 10:57:10;;;;;;;9.38;4.25;;;;;;;28.56;53.01;98204.31;6227564;23;20489;-88
2023/06/16 11:00:02;;;;;;;8.68;3.63;;;;;;;28.58;53.27;98210.34;6245088;23;20149;-88
2023/06/16 11:02:31;;;;;;;6.53;3.65;;;;;;;28.53;53.95;98220.94;6245778;23;20161;-89
2023/06/16 11:05:09;;;;;;;6.13;3.38;;;;;;;28.55;52.30;98236.91;6245402;23;20172;-89
2023/06/16 11:07:47;;;;;;;8.07;3.58;;;;;;;28.46;52.72;98247.09;6243823;23;20145;-87
2023/06/16 11:10:18;;;;;;;5.72;3.20;;;;;;;28.57;53.24;98253.69;6245118;23;20549;-89
2023/06/16 11:12:47;;;;;;;4.90;2.80;;;;;;;28.65;53.07;98250.75;6245130;23;20145;-91
2023/06/16 11:15:13;;;;;;;6.93;3.40;;;;;;;28.78;53.74;98244.44;6245732;23;20146;-89
2023/06/16 11:17:40;;;;;;;12.20;3.53;;;;;;;28.73;50.51;98250.50;6245393;23;20199;-87
2023/06/16 11:20:06;;;;;;;5.53;3.00;;;;;;;28.68;50.77;98254.91;6244965;23;20171;-86
2023/06/16 11:22:36;;;;;;;4.90;3.15;;;;;;;28.79;52.16;98255.03;6218970;23;20157;-86
2023/06/16 11:25:03;;;;;;;6.05;2.80;;;;;;;28.85;51.50;98258.75;6245505;23;20149;-87
2023/06/16 11:27:30;;;;;;;7.07;3.45;;;;;;;28.91;50.80;98258.69;6245018;23;20156;-86
2023/06/16 11:29:57;;;;;;;9.90;3.60;;;;;;;28.96;50.75;98255.31;6244875;23;20477;-87
2023/06/16 11:32:34;;;;;;;7.07;3.25;;;;;;;29.02;51.79;98247.19;6244310;23;20177;-86
2023/06/16 11:35:00;;;;;;;8.98;3.25;;;;;;;29.13;50.92;98241.09;6242730;23;20137;-87
2023/06/16 11:38:01;;;;;;;6.15;3.08;;;;;;;29.34;49.97;98237.19;6243689;23;20610;-87
2023/06/16 11:40:30;;;;;;;9.50;3.83;;;;;;;29.30;50.82;98238.66;6139496;23;20241;-86
2023/06/16 11:42:56;;;;;;;7.15;2.97;;;;;;;29.34;50.66;98239.91;6216726;23;20577;-86
2023/06/16 11:45:26;;;;;;;4.72;3.20;;;;;;;29.44;50.51;98232.13;6243744;23;20149;-86